Time;durP1;ratioP1;P1;durP2;ratioP2;P2;SDS_P1;SDS_P2;PMS_P1;PMS_P2;Temp;Humidity;BMP_temperature;BMP_pressure;BME280_temperature;BME280_humidity;BME280_pressure;Samples;Min_cycle;Max_cycle;Signal;HPM_P1;HPM_P2
2022/09/08 00:01:30;;;;;;;11.70;5.50;;;;;;;26.47;100.00;100760.22;5074601;28;20043;-59
2022/09/08 00:03:55;;;;;;;16.33;5.55;;;;;;;26.48;100.00;100756.38;5076120;28;20089;-58
2022/09/08 00:06:21;;;;;;;18.08;6.00;;;;;;;26.72;100.00;100763.56;5079361;28;20037;-56
2022/09/08 00:08:55;;;;;;;15.47;5.73;;;;;;;26.92;100.00;100754.06;5079892;28;20040;-55
2022/09/08 00:11:26;;;;;;;14.07;5.47;;;;;;;26.83;100.00;100751.22;5079808;28;20048;-58
2022/09/08 00:13:51;;;;;;;17.03;5.17;;;;;;;26.94;100.00;100740.88;5079522;28;20112;-56
2022/09/08 00:16:18;;;;;;;8.40;5.55;;;;;;;27.26;100.00;100744.53;5082749;28;20028;-59
2022/09/08 00:18:45;;;;;;;14.93;5.50;;;;;;;27.22;100.00;100748.19;5080482;28;20040;-58
2022/09/08 00:21:11;;;;;;;13.37;5.53;;;;;;;27.14;100.00;100742.34;5084071;28;20100;-57
2022/09/08 00:23:37;;;;;;;10.48;5.50;;;;;;;26.64;100.00;100734.91;5078356;28;20028;-59
2022/09/08 00:26:03;;;;;;;11.82;6.28;;;;;;;26.75;100.00;100735.50;5073736;28;20043;-58
2022/09/08 00:28:28;;;;;;;;;;;;;;;26.28;100.00;100739.22;5075970;28;20025;-59
2022/09/08 00:30:54;;;;;;;17.10;5.67;;;;;;;25.80;100.00;100734.84;5077960;28;19932;-59
2022/09/08 00:33:21;;;;;;;14.90;5.72;;;;;;;25.66;100.00;100734.03;5073564;28;20090;-59
2022/09/08 00:35:49;;;;;;;;;;;;;;;25.83;100.00;100723.28;5079667;28;20033;-58
2022/09/08 00:38:15;;;;;;;11.90;5.43;;;;;;;25.77;100.00;100728.06;5077606;28;19956;-59
2022/09/08 00:40:47;;;;;;;13.55;6.50;;;;;;;25.76;100.00;100728.38;5076530;28;20055;-59
2022/09/08 00:43:33;;;;;;;13.40;5.10;;;;;;;25.20;100.00;100734.44;5076681;28;20033;-59
2022/09/08 00:46:06;;;;;;;35.97;6.90;;;;;;;25.22;100.00;100722.38;5079581;28;20045;-60
2022/09/08 00:48:32;;;;;;;15.73;7.27;;;;;;;24.71;100.00;100731.03;5075990;28;20044;-59
2022/09/08 00:50:58;;;;;;;17.88;8.30;;;;;;;25.26;100.00;100720.69;5077058;28;20037;-58
2022/09/08 00:53:25;;;;;;;28.70;8.30;;;;;;;25.09;100.00;100724.78;5077189;28;20033;-55
2022/09/08 00:55:51;;;;;;;26.60;8.80;;;;;;;24.26;100.00;100714.91;5074159;28;20029;-56
2022/09/08 00:58:17;;;;;;;72.07;11.00;;;;;;;24.07;100.00;100728.50;5076204;28;20055;-54
2022/09/08 01:00:43;;;;;;;;;;;;;;;24.67;100.00;100710.03;5080223;28;20043;-56
2022/09/08 01:03:12;;;;;;;27.20;9.80;;;;;;;24.93;100.00;100707.78;5078803;28;19916;-56
2022/09/08 01:06:06;;;;;;;32.53;12.27;;;;;;;25.04;100.00;100714.72;5078551;28;20092;-55
2022/09/08 01:14:52;;;;;;;37.57;12.37;;;;;;;23.72;100.00;100714.06;5033709;28;20061;-55
2022/09/08 01:17:29;;;;;;;42.83;11.40;;;;;;;23.54;100.00;100721.88;5054818;28;20073;-56
2022/09/08 01:19:58;;;;;;;44.83;12.37;;;;;;;23.73;100.00;100723.88;5074601;28;20029;-51
2022/09/08 01:22:27;;;;;;;38.07;11.17;;;;;;;23.83;100.00;100766.66;5071682;28;20055;-52
2022/09/08 01:25:17;;;;;;;44.07;12.33;;;;;;;23.89;100.00;100730.03;5074870;28;20566;-51
2022/09/08 01:27:48;;;;;;;46.33;14.17;;;;;;;28.34;100.00;100729.13;5074960;28;20025;-52
2022/09/08 01:30:14;;;;;;;68.97;15.70;;;;;;;28.38;100.00;100716.38;5077754;28;20037;-49
2022/09/08 01:32:42;;;;;;;38.87;15.30;;;;;;;29.23;100.00;100714.34;5077059;28;20021;-51
2022/09/08 01:35:08;;;;;;;36.43;14.83;;;;;;;28.70;100.00;100719.81;5076216;28;20043;-53
2022/09/08 01:37:34;;;;;;;;;;;;;;;28.16;100.00;100720.00;5080973;28;20037;-54
2022/09/08 01:40:02;;;;;;;39.33;15.40;;;;;;;29.41;100.00;100708.84;5078076;28;19917;-55
2022/09/08 01:42:28;;;;;;;47.47;15.80;;;;;;;29.12;100.00;100715.81;5080495;28;20029;-55
2022/09/08 01:44:54;;;;;;;;;;;;;;;28.44;100.00;100715.09;5081795;28;20059;-55
2022/09/08 01:47:19;;;;;;;42.93;16.20;;;;;;;28.83;100.00;100714.50;5078875;28;19914;-55
2022/09/08 01:49:45;;;;;;;30.27;14.13;;;;;;;28.41;100.00;100712.97;5073555;28;20061;-57
2022/09/08 01:52:10;;;;;;;37.25;14.52;;;;;;;28.34;100.00;100704.38;5068319;28;20032;-56
2022/09/08 01:54:36;;;;;;;39.75;15.20;;;;;;;28.16;100.00;100698.84;5073143;28;20067;-56
2022/09/08 01:57:02;;;;;;;36.58;14.52;;;;;;;29.00;100.00;100694.44;5072942;28;20067;-56
2022/09/08 01:59:27;;;;;;;37.78;13.90;;;;;;;28.09;100.00;100681.97;5075140;28;20032;-56
2022/09/08 02:01:53;;;;;;;32.03;12.73;;;;;;;28.13;100.00;100680.19;5075046;28;20032;-55
2022/09/08 02:04:19;;;;;;;38.67;12.88;;;;;;;27.82;100.00;100677.53;5072487;28;20036;-52
2022/09/08 02:06:45;;;;;;;33.40;13.25;;;;;;;28.13;100.00;100665.66;5075326;28;20052;-54
2022/09/08 02:09:13;;;;;;;30.75;12.23;;;;;;;27.80;100.00;100669.59;5073200;28;20025;-56
2022/09/08 02:11:39;;;;;;;36.37;13.37;;;;;;;27.77;100.00;100660.03;5077095;28;20032;-57
2022/09/08 02:14:05;;;;;;;32.78;12.80;;;;;;;27.92;100.00;100658.00;5074056;28;20037;-55
2022/09/08 02:16:31;;;;;;;26.70;12.52;;;;;;;28.46;100.00;100663.31;5077707;28;20043;-56
2022/09/08 02:18:57;;;;;;;34.17;14.23;;;;;;;28.97;100.00;100659.31;5075509;28;20033;-58
2022/09/08 02:21:27;;;;;;;28.83;12.13;;;;;;;28.72;100.00;100665.28;5076307;28;20092;-58
2022/09/08 02:23:54;;;;;;;54.23;13.60;;;;;;;28.17;100.00;100667.47;5074672;28;20060;-56
2022/09/08 02:26:23;;;;;;;;;;;;;;;28.61;100.00;100664.78;5081494;28;20055;-58
2022/09/08 02:28:53;;;;;;;29.77;11.53;;;;;;;28.96;100.00;100658.50;5078755;28;19919;-58
2022/09/08 02:31:19;;;;;;;25.97;11.23;;;;;;;28.97;100.00;100660.13;5078498;28;20044;-54
2022/09/08 02:33:45;;;;;;;25.83;11.53;;;;;;;28.85;100.00;100654.47;5081262;28;20044;-58
2022/09/08 02:36:11;;;;;;;19.52;9.93;;;;;;;28.19;100.00;100653.41;5080158;28;20043;-57
2022/09/08 02:38:37;;;;;;;28.30;11.02;;;;;;;28.68;100.00;100645.06;5081955;28;20033;-57
2022/09/08 02:41:03;;;;;;;24.92;12.65;;;;;;;28.76;100.00;100627.72;5079561;28;20033;-59
2022/09/08 02:43:29;;;;;;;27.90;13.57;;;;;;;28.67;100.00;100623.34;5078579;28;20041;-58
2022/09/08 02:45:55;;;;;;;25.60;11.57;;;;;;;28.79;100.00;100639.22;5059514;28;20101;-58
2022/09/08 02:48:20;;;;;;;26.05;10.98;;;;;;;28.87;100.00;100635.69;5059555;28;20064;-59
2022/09/08 02:50:47;;;;;;;;;;;;;;;28.64;100.00;100627.59;5061349;28;20133;-59
2022/09/08 02:53:12;;;;;;;22.13;9.67;;;;;;;28.62;100.00;100632.59;5060778;28;19920;-60
2022/09/08 02:55:39;;;;;;;28.70;11.90;;;;;;;28.69;100.00;100618.34;5061770;28;20604;-59
2022/09/08 02:58:07;;;;;;;22.63;10.53;;;;;;;28.50;100.00;100624.19;5062356;28;20067;-59
2022/09/08 03:00:34;;;;;;;23.60;8.97;;;;;;;28.38;100.00;100620.13;5057652;28;20033;-59
2022/09/08 03:03:00;;;;;;;23.50;9.07;;;;;;;28.05;100.00;100618.59;5060537;28;20041;-59
2022/09/08 03:05:26;;;;;;;23.35;9.93;;;;;;;28.15;100.00;100609.28;5057267;28;20038;-59
2022/09/08 03:07:51;;;;;;;20.77;9.13;;;;;;;28.19;100.00;100610.25;5063132;28;20035;-60
2022/09/08 03:10:20;;;;;;;18.15;9.02;;;;;;;27.93;100.00;100604.66;5060923;28;20039;-59
2022/09/08 03:12:46;;;;;;;18.77;8.90;;;;;;;27.78;100.00;100597.66;5059419;28;20033;-60
2022/09/08 03:15:12;;;;;;;27.17;9.98;;;;;;;27.43;100.00;100589.25;5061049;28;20076;-59
2022/09/08 03:17:38;;;;;;;22.50;9.83;;;;;;;26.89;100.00;100584.63;5059631;28;20044;-60
2022/09/08 03:20:04;;;;;;;23.75;9.52;;;;;;;27.23;100.00;100580.47;5062386;28;20195;-60
2022/09/08 03:22:29;;;;;;;21.58;10.88;;;;;;;27.65;100.00;100568.38;5061037;28;20044;-59
2022/09/08 03:24:55;;;;;;;22.13;11.00;;;;;;;27.57;100.00;100568.03;5057984;28;20088;-58
2022/09/08 03:27:20;;;;;;;31.52;10.75;;;;;;;27.16;100.00;100580.91;5060495;28;20029;-60
2022/09/08 03:29:46;;;;;;;21.52;10.02;;;;;;;27.00;100.00;100596.97;5057920;28;20060;-59
2022/09/08 03:32:11;;;;;;;21.10;11.48;;;;;;;26.87;100.00;100597.84;5062321;28;20075;-60
2022/09/08 03:34:37;;;;;;;23.70;12.23;;;;;;;26.37;100.00;100610.47;5061341;28;20048;-60
2022/09/08 03:37:03;;;;;;;33.73;13.53;;;;;;;25.28;100.00;100598.88;5057773;28;20041;-60
2022/09/08 03:39:28;;;;;;;28.60;13.05;;;;;;;25.83;100.00;100594.56;5059899;28;20266;-61
2022/09/08 03:41:54;;;;;;;27.00;12.10;;;;;;;25.30;100.00;100588.44;5060143;28;20034;-60
2022/09/08 03:44:19;;;;;;;28.20;11.15;;;;;;;25.14;100.00;100596.09;5067051;28;20064;-60
2022/09/08 03:46:45;;;;;;;53.08;13.02;;;;;;;25.30;100.00;100607.59;5078927;28;20036;-59
2022/09/08 03:49:11;;;;;;;28.58;10.95;;;;;;;24.67;100.00;100606.94;5080776;28;20066;-57
2022/09/08 03:51:37;;;;;;;22.03;9.27;;;;;;;24.20;100.00;100604.06;5075800;28;20048;-57
2022/09/08 03:56:49;;;;;;;17.30;7.33;;;;;;;23.99;100.00;100614.38;5076078;28;20286;-59
2022/09/08 03:59:15;;;;;;;29.03;8.70;;;;;;;24.32;100.00;100609.09;5081821;28;20024;-60
2022/09/08 04:01:41;;;;;;;19.98;8.48;;;;;;;23.79;100.00;100616.28;5078206;28;20029;-59
2022/09/08 04:04:06;;;;;;;63.47;11.55;;;;;;;24.32;100.00;100617.28;5081213;28;20040;-59
2022/09/08 04:06:32;;;;;;;39.20;8.98;;;;;;;24.32;100.00;100612.63;5078820;28;20060;-56
2022/09/08 04:08:58;;;;;;;25.75;9.93;;;;;;;24.13;100.00;100615.34;5077721;28;20051;-57
2022/09/08 04:11:24;;;;;;;28.23;9.23;;;;;;;24.33;100.00;100619.72;5079287;28;20032;-59
2022/09/08 04:13:50;;;;;;;27.20;8.50;;;;;;;24.49;100.00;100611.31;5077970;28;20090;-59
2022/09/08 04:16:17;;;;;;;27.77;10.02;;;;;;;24.83;100.00;100612.22;5080080;28;20029;-59
2022/09/08 04:18:44;;;;;;;26.57;10.97;;;;;;;24.33;100.00;100616.97;5081657;28;20079;-60
2022/09/08 04:21:10;;;;;;;19.93;9.00;;;;;;;24.39;100.00;100617.72;5076288;28;20129;-59
2022/09/08 04:23:37;;;;;;;28.13;8.00;;;;;;;24.39;100.00;100620.47;5079865;28;20096;-59
2022/09/08 04:26:09;;;;;;;20.20;8.43;;;;;;;24.72;100.00;100614.25;5077781;28;20040;-59
2022/09/08 04:28:34;;;;;;;18.33;7.80;;;;;;;24.38;100.00;100623.50;5079519;28;20029;-60
2022/09/08 04:31:05;;;;;;;19.98;7.07;;;;;;;23.89;100.00;100631.72;5078625;28;20033;-59
2022/09/08 04:33:31;;;;;;;15.03;7.07;;;;;;;24.08;100.00;100623.59;5076729;28;20037;-59
2022/09/08 04:35:56;;;;;;;20.30;6.60;;;;;;;23.34;100.00;100624.63;5079823;28;20047;-59
2022/09/08 04:38:22;;;;;;;16.20;7.38;;;;;;;24.10;100.00;100609.63;5077820;28;20112;-59
2022/09/08 04:40:47;;;;;;;21.40;7.75;;;;;;;24.59;100.00;100599.41;5081461;28;20025;-60
2022/09/08 04:43:13;;;;;;;44.30;8.00;;;;;;;24.03;100.00;100588.16;5079323;28;20041;-60
2022/09/08 04:45:39;;;;;;;27.95;9.27;;;;;;;23.97;100.00;100572.91;5080490;28;20097;-59
2022/09/08 04:48:04;;;;;;;61.22;9.55;;;;;;;24.12;100.00;100580.94;5078289;28;20033;-58
2022/09/08 04:50:29;;;;;;;49.03;10.20;;;;;;;24.53;100.00;100582.28;5080145;28;20084;-58
2022/09/08 04:52:55;;;;;;;50.95;13.23;;;;;;;24.38;100.00;100591.50;5081480;28;20044;-55
2022/09/08 04:55:21;;;;;;;31.50;8.48;;;;;;;24.52;100.00;100605.25;5079158;28;20045;-58
2022/09/08 04:57:46;;;;;;;20.58;7.85;;;;;;;24.49;100.00;100601.22;5081143;28;20051;-59
2022/09/08 05:00:13;;;;;;;20.00;7.78;;;;;;;24.75;100.00;100619.16;5079037;28;20029;-59
2022/09/08 05:02:39;;;;;;;44.40;7.77;;;;;;;24.48;100.00;100618.72;5078186;28;20040;-58
2022/09/08 05:05:04;;;;;;;33.67;8.27;;;;;;;23.44;100.00;100627.28;5079285;28;20029;-56
2022/09/08 05:07:30;;;;;;;25.48;7.53;;;;;;;23.94;100.00;100644.50;5079253;28;20056;-52
2022/09/08 05:09:56;;;;;;;34.53;7.90;;;;;;;24.19;100.00;100616.09;5081884;28;20037;-50
2022/09/08 05:12:21;;;;;;;29.33;8.70;;;;;;;24.25;100.00;100623.09;5076100;28;20101;-52
2022/09/08 05:14:46;;;;;;;24.37;8.70;;;;;;;24.36;100.00;100623.78;5079828;28;20045;-53
2022/09/08 05:17:12;;;;;;;32.65;9.60;;;;;;;24.42;100.00;100627.28;5078230;28;20063;-54
2022/09/08 05:19:38;;;;;;;41.30;10.63;;;;;;;24.40;100.00;100624.81;5077357;28;20044;-55
2022/09/08 05:22:03;;;;;;;24.02;9.90;;;;;;;23.79;100.00;100624.47;5080413;28;20303;-53
2022/09/08 05:24:29;;;;;;;33.17;11.73;;;;;;;24.24;100.00;100626.16;5078459;28;20048;-57
2022/09/08 05:26:54;;;;;;;44.10;11.20;;;;;;;24.01;100.00;100628.59;5080475;28;20030;-55
2022/09/08 05:29:22;;;;;;;24.90;10.75;;;;;;;24.26;100.00;100621.22;5079513;28;20122;-56
2022/09/08 05:31:48;;;;;;;29.07;11.20;;;;;;;24.54;100.00;100626.84;5076873;28;20057;-54
2022/09/08 05:34:14;;;;;;;31.77;11.98;;;;;;;24.11;100.00;100627.69;5078283;28;20029;-55
2022/09/08 05:36:39;;;;;;;29.80;11.10;;;;;;;23.75;100.00;100631.59;5075383;28;20047;-54
2022/09/08 05:39:06;;;;;;;28.17;9.85;;;;;;;23.51;100.00;100637.84;5079415;28;20037;-54
2022/09/08 05:41:33;;;;;;;40.47;11.27;;;;;;;23.16;100.00;100637.03;5072821;28;20043;-55
2022/09/08 05:43:59;;;;;;;23.63;10.47;;;;;;;23.44;100.00;100631.91;5077511;28;20055;-57
2022/09/08 05:46:26;;;;;;;34.70;13.75;;;;;;;23.43;100.00;100635.75;5073133;28;20352;-55
2022/09/08 05:48:53;;;;;;;42.73;16.57;;;;;;;22.91;100.00;100634.22;5074006;28;20028;-57
2022/09/08 05:51:19;;;;;;;46.93;18.73;;;;;;;23.10;100.00;100633.53;5076072;28;20293;-55
2022/09/08 05:53:45;;;;;;;60.10;20.88;;;;;;;23.65;100.00;100627.06;5072422;28;20040;-57
2022/09/08 05:56:12;;;;;;;50.30;19.43;;;;;;;23.53;100.00;100629.38;5077611;28;20017;-57
2022/09/08 05:58:37;;;;;;;48.03;21.70;;;;;;;23.50;100.00;100625.28;5073307;28;20036;-57
2022/09/08 06:01:07;;;;;;;38.88;15.23;;;;;;;23.26;100.00;100628.00;5079683;28;20048;-56
2022/09/08 06:03:33;;;;;;;33.37;13.40;;;;;;;23.15;100.00;100629.97;5081680;28;20110;-55
2022/09/08 06:06:04;;;;;;;33.08;13.65;;;;;;;23.13;100.00;100637.63;5080194;28;20337;-54
2022/09/08 06:08:30;;;;;;;48.57;13.60;;;;;;;23.24;100.00;100630.97;5083501;28;20045;-52
2022/09/08 06:10:56;;;;;;;32.03;12.23;;;;;;;23.10;100.00;100630.00;5082961;28;20039;-55
2022/09/08 06:13:22;;;;;;;29.27;11.68;;;;;;;23.14;100.00;100637.31;5082164;28;20060;-52
2022/09/08 06:15:49;;;;;;;31.58;10.85;;;;;;;23.52;100.00;100628.53;5083279;28;20029;-53
2022/09/08 06:18:16;;;;;;;43.27;12.00;;;;;;;23.23;100.00;100636.72;5082661;28;20052;-57
2022/09/08 06:20:43;;;;;;;33.47;12.50;;;;;;;23.19;100.00;100644.66;5080958;28;20032;-53
2022/09/08 06:23:10;;;;;;;30.57;10.53;;;;;;;23.30;100.00;100634.50;5079907;28;20044;-55
2022/09/08 06:25:43;;;;;;;40.17;13.03;;;;;;;23.36;100.00;100635.28;5081641;28;20074;-54
2022/09/08 06:28:22;;;;;;;31.07;12.97;;;;;;;23.38;100.00;100644.78;5081161;28;20028;-52
2022/09/08 06:30:50;;;;;;;32.27;12.20;;;;;;;23.53;100.00;100641.13;5076308;28;20044;-56
2022/09/08 06:33:22;;;;;;;42.53;12.97;;;;;;;23.04;100.00;100640.94;5076691;28;20040;-54
2022/09/08 06:35:57;;;;;;;56.67;14.90;;;;;;;23.05;100.00;100652.66;5077413;28;20029;-54
2022/09/08 06:38:33;;;;;;;107.10;18.93;;;;;;;23.30;100.00;100645.41;5083044;28;20033;-50
2022/09/08 06:41:10;;;;;;;47.97;15.27;;;;;;;22.76;100.00;100639.78;5081709;28;20043;-53
2022/09/08 06:43:42;;;;;;;24.47;12.20;;;;;;;22.86;100.00;100633.47;5081516;28;20303;-52
2022/09/08 06:46:19;;;;;;;44.80;14.47;;;;;;;23.68;100.00;100633.84;5080490;28;20044;-52
2022/09/08 06:48:45;;;;;;;31.52;12.32;;;;;;;23.50;100.00;100641.66;5080327;28;20058;-54
2022/09/08 06:51:20;;;;;;;35.45;13.25;;;;;;;23.38;100.00;100638.53;5081421;28;20036;-53
2022/09/08 06:54:09;;;;;;;31.70;13.50;;;;;;;23.74;100.00;100636.25;5081606;28;20062;-56
2022/09/08 06:56:44;;;;;;;33.20;14.70;;;;;;;23.88;100.00;100635.56;5080104;28;20044;-54
2022/09/08 06:59:22;;;;;;;33.73;14.30;;;;;;;24.08;100.00;100640.00;5079725;28;20095;-51
2022/09/08 07:01:54;;;;;;;29.87;13.67;;;;;;;24.55;100.00;100633.91;5081997;28;20099;-55
2022/09/08 07:04:38;;;;;;;24.13;12.47;;;;;;;24.00;100.00;100637.88;5078341;28;20176;-56
2022/09/08 07:07:18;;;;;;;26.07;12.83;;;;;;;24.27;100.00;100640.03;5079484;28;20025;-52
2022/09/08 07:09:53;;;;;;;24.93;11.80;;;;;;;24.56;100.00;100635.53;5075110;28;20032;-52
2022/09/08 07:12:54;;;;;;;23.00;11.47;;;;;;;24.62;100.00;100648.03;5077313;28;20032;-52
2022/09/08 07:15:36;;;;;;;28.77;10.67;;;;;;;24.57;100.00;100639.91;5079138;28;20034;-55
2022/09/08 07:18:30;;;;;;;19.40;10.37;;;;;;;24.22;100.00;100655.66;5075707;28;20099;-57
2022/09/08 07:21:35;;;;;;;22.77;11.70;;;;;;;23.87;100.00;100655.75;5073127;28;20032;-56
2022/09/08 07:24:02;;;;;;;27.73;10.77;;;;;;;23.86;100.00;100654.97;5070407;28;20374;-55
2022/09/08 07:26:38;;;;;;;30.33;14.23;;;;;;;23.74;100.00;100657.25;5082205;28;20031;-55
2022/09/08 07:29:27;;;;;;;34.17;15.90;;;;;;;24.40;100.00;100646.69;5077090;28;20028;-57
2022/09/08 07:31:53;;;;;;;36.33;17.63;;;;;;;23.91;100.00;100651.38;5077902;28;20039;-52
2022/09/08 07:34:31;;;;;;;32.30;15.77;;;;;;;24.62;100.00;100648.03;5078576;28;20032;-56
2022/09/08 07:37:08;;;;;;;30.37;14.07;;;;;;;24.29;100.00;100645.22;5079822;28;20100;-53
2022/09/08 07:39:40;;;;;;;27.93;13.50;;;;;;;24.10;100.00;100642.41;5079064;28;20036;-57
2022/09/08 07:42:09;;;;;;;25.03;13.57;;;;;;;23.54;100.00;100650.94;5079165;28;20036;-55
2022/09/08 07:44:35;;;;;;;26.40;12.43;;;;;;;23.91;100.00;100654.09;5077826;28;20079;-57
2022/09/08 07:47:12;;;;;;;28.92;11.88;;;;;;;23.53;100.00;100653.94;5074133;28;20032;-52
2022/09/08 07:50:05;;;;;;;22.23;12.43;;;;;;;24.24;100.00;100648.81;5076492;28;20099;-55
2022/09/08 07:53:03;;;;;;;30.47;13.87;;;;;;;23.87;100.00;100645.66;5079390;28;20060;-49
2022/09/08 07:55:37;;;;;;;82.78;44.65;;;;;;;23.60;100.00;100644.31;5079728;28;20039;-52
2022/09/08 07:58:18;;;;;;;37.57;16.83;;;;;;;23.59;100.00;100650.88;5076670;28;20040;-51
2022/09/08 08:01:11;;;;;;;23.67;12.50;;;;;;;24.03;100.00;100645.53;5075765;28;20029;-49
2022/09/08 08:03:51;;;;;;;33.33;16.43;;;;;;;23.81;100.00;100651.47;5071563;28;20040;-53
2022/09/08 08:06:27;;;;;;;28.93;15.17;;;;;;;23.22;100.00;100659.63;5077952;28;20039;-54
2022/09/08 08:09:10;;;;;;;26.07;14.20;;;;;;;23.84;100.00;100650.88;5076264;28;20032;-54
2022/09/08 08:11:55;;;;;;;26.70;12.27;;;;;;;23.71;100.00;100657.84;5077157;28;20036;-55
2022/09/08 08:14:26;;;;;;;22.40;12.03;;;;;;;23.83;100.00;100655.53;5077352;28;20037;-54
2022/09/08 08:17:13;;;;;;;26.97;11.63;;;;;;;24.05;100.00;100676.88;5070032;28;20091;-54
2022/09/08 08:19:53;;;;;;;23.77;10.55;;;;;;;23.68;100.00;100685.72;5074559;28;20048;-52
2022/09/08 08:22:25;;;;;;;23.97;11.37;;;;;;;23.37;100.00;100669.63;5072341;28;20089;-50
2022/09/08 08:25:15;;;;;;;25.73;11.87;;;;;;;23.71;100.00;100663.31;5075375;28;20029;-52
2022/09/08 08:27:53;;;;;;;21.10;11.17;;;;;;;23.34;100.00;100666.38;5079489;28;20054;-50
2022/09/08 08:30:24;;;;;;;68.07;35.67;;;;;;;23.32;100.00;100663.13;5080779;28;20036;-54
2022/09/08 08:33:13;;;;;;;31.53;16.40;;;;;;;24.21;100.00;100676.72;5077565;28;20033;-54
2022/09/08 08:36:06;;;;;;;26.13;10.50;;;;;;;24.15;100.00;100677.88;5079815;28;20036;-54
2022/09/08 08:38:43;;;;;;;21.47;10.23;;;;;;;23.46;100.00;100671.47;5076424;28;20055;-54
2022/09/08 08:41:20;;;;;;;21.30;9.30;;;;;;;23.97;100.00;100677.50;5078578;28;20044;-54
2022/09/08 08:44:05;;;;;;;28.40;14.45;;;;;;;23.96;100.00;100678.59;5075674;28;20063;-55
2022/09/08 08:46:42;;;;;;;23.70;11.20;;;;;;;23.90;100.00;100675.13;5077853;28;20068;-52
2022/09/08 08:49:40;;;;;;;34.83;16.90;;;;;;;23.85;100.00;100674.34;5078846;28;20024;-56
2022/09/08 08:52:14;;;;;;;;;;;;;;;24.04;100.00;100686.19;5078790;28;20036;-54
2022/09/08 08:54:46;;;;;;;37.63;16.67;;;;;;;23.92;100.00;100696.69;5075201;28;19917;-54
2022/09/08 08:57:32;;;;;;;17.03;8.40;;;;;;;24.30;100.00;100679.63;5079279;28;20033;-51
2022/09/08 09:00:10;;;;;;;12.97;7.43;;;;;;;24.94;100.00;100682.06;5076293;28;20028;-55
2022/09/08 09:02:50;;;;;;;13.20;5.70;;;;;;;25.30;100.00;100676.00;5077695;28;20262;-54
2022/09/08 09:05:47;;;;;;;45.97;19.57;;;;;;;25.06;100.00;100676.13;5077741;28;20040;-55
2022/09/08 09:08:59;;;;;;;27.38;13.88;;;;;;;24.50;100.00;100681.25;5075195;28;20044;-54
2022/09/08 09:11:46;;;;;;;15.17;5.03;;;;;;;25.42;100.00;100675.53;5075440;28;20029;-53
2022/09/08 09:14:40;;;;;;;8.13;5.20;;;;;;;25.55;100.00;100679.44;5077247;28;20047;-47
2022/09/08 09:17:33;;;;;;;8.43;4.90;;;;;;;25.56;100.00;100678.31;5076457;28;20094;-50
2022/09/08 09:20:25;;;;;;;8.53;3.90;;;;;;;25.42;100.00;100674.72;5074088;28;20035;-53
2022/09/08 09:23:13;;;;;;;8.00;4.57;;;;;;;25.52;100.00;100685.53;5073475;28;20061;-51
2022/09/08 09:25:58;;;;;;;;;;;;;;;24.86;100.00;100672.59;5073622;28;20211;-52
2022/09/08 09:28:36;;;;;;;10.00;2.57;;;;;;;24.74;100.00;100673.00;5078659;28;19912;-53
2022/09/08 09:31:11;;;;;;;6.20;2.87;;;;;;;24.92;100.00;100679.63;5068482;28;20082;-54
2022/09/08 09:33:48;;;;;;;8.40;3.03;;;;;;;24.71;100.00;100679.09;5079566;28;20032;-49
2022/09/08 09:36:59;;;;;;;12.43;4.00;;;;;;;24.31;100.00;100681.25;5081165;28;20029;-51
2022/09/08 09:40:03;;;;;;;7.77;3.40;;;;;;;26.15;100.00;100680.50;5058072;28;20068;-52
2022/09/08 09:42:36;;;;;;;11.83;3.60;;;;;;;27.30;100.00;100671.41;5080017;28;20052;-51
2022/09/08 09:45:35;;;;;;;6.20;2.93;;;;;;;28.39;100.00;100679.50;5081354;28;20052;-52
2022/09/08 09:48:29;;;;;;;6.43;3.23;;;;;;;27.85;100.00;100682.38;5078323;28;20040;-49
2022/09/08 09:51:17;;;;;;;6.93;3.00;;;;;;;26.39;100.00;100682.25;5082778;28;20100;-53
2022/09/08 09:54:17;;;;;;;9.43;3.27;;;;;;;26.54;100.00;100664.66;5077936;28;20101;-52
2022/09/08 09:57:11;;;;;;;8.43;3.33;;;;;;;26.95;100.00;100656.63;5080106;28;20035;-51
2022/09/08 10:00:08;;;;;;;6.33;2.77;;;;;;;26.22;100.00;100654.66;5080322;28;20469;-52
2022/09/08 10:03:27;;;;;;;4.13;1.90;;;;;;;28.61;100.00;100658.50;5080220;28;20063;-49
2022/09/08 10:06:19;;;;;;;84.70;39.33;;;;;;;28.13;100.00;100671.16;5077954;28;20120;-53
2022/09/08 10:09:06;;;;;;;8.90;2.70;;;;;;;28.85;100.00;100671.00;5079098;28;20029;-53
2022/09/08 10:11:55;;;;;;;11.53;3.73;;;;;;;29.19;100.00;100683.91;5079278;28;20044;-56
2022/09/08 10:14:54;;;;;;;8.77;2.17;;;;;;;30.63;100.00;100675.56;5077143;28;20092;-54
2022/09/08 10:17:58;;;;;;;23.75;10.10;;;;;;;29.33;100.00;100680.97;5080827;28;20067;-54
2022/09/08 10:20:58;;;;;;;5.00;1.98;;;;;;;29.10;100.00;100683.09;5079392;28;20032;-52
2022/09/08 10:23:29;;;;;;;9.07;3.90;;;;;;;29.09;100.00;100675.97;5081138;28;20030;-50
2022/09/08 10:26:14;;;;;;;34.77;15.77;;;;;;;28.39;100.00;100679.50;5080365;28;20096;-50
2022/09/08 10:28:49;;;;;;;6.93;3.13;;;;;;;27.81;100.00;100673.94;5074442;28;20037;-54
2022/09/08 10:31:33;;;;;;;9.60;3.27;;;;;;;26.51;100.00;100672.66;5081057;28;20056;-52
2022/09/08 10:34:17;;;;;;;10.17;4.63;;;;;;;27.60;100.00;100666.25;5082245;28;20033;-50
2022/09/08 10:37:13;;;;;;;8.47;2.80;;;;;;;29.53;100.00;100669.59;5077701;28;20100;-53
2022/09/08 10:40:15;;;;;;;12.77;3.30;;;;;;;30.33;100.00;100668.91;5081178;28;20040;-49
2022/09/08 10:42:45;;;;;;;7.57;2.20;;;;;;;30.96;94.53;100674.75;5074110;28;20037;-51
2022/09/08 10:45:23;;;;;;;5.13;1.60;;;;;;;30.78;93.51;100685.16;5078744;28;20043;-52
2022/09/08 10:48:01;;;;;;;7.97;1.90;;;;;;;31.24;91.42;100672.25;5078807;28;20025;-53
2022/09/08 10:50:30;;;;;;;5.15;1.35;;;;;;;31.87;85.30;100682.28;5076080;28;20100;-52
2022/09/08 10:53:33;;;;;;;6.15;1.55;;;;;;;31.72;82.05;100674.63;5079647;28;20044;-52
2022/09/08 10:56:07;;;;;;;4.78;1.45;;;;;;;32.31;79.09;100669.81;5077279;28;20021;-49
2022/09/08 10:58:51;;;;;;;7.38;1.42;;;;;;;31.78;78.70;100669.72;5078069;28;20101;-50
2022/09/08 11:01:26;;;;;;;7.47;1.83;;;;;;;32.54;72.88;100683.16;5075404;28;20037;-54
2022/09/08 11:04:35;;;;;;;6.05;1.27;;;;;;;32.55;75.09;100687.53;5071398;28;20040;-54
2022/09/08 11:07:37;;;;;;;13.15;2.22;;;;;;;32.70;76.15;100678.47;5072573;28;20047;-55
2022/09/08 11:10:34;;;;;;;18.95;7.60;;;;;;;32.65;74.55;100675.19;5076030;28;20123;-54
2022/09/08 11:13:25;;;;;;;8.45;2.72;;;;;;;35.02;63.69;100684.13;5073729;28;20028;-53
2022/09/08 11:16:09;;;;;;;7.30;2.22;;;;;;;33.60;67.36;100682.91;5071788;28;20075;-50
2022/09/08 11:19:13;;;;;;;18.15;8.00;;;;;;;33.64;66.33;100682.19;5078457;28;20055;-52
2022/09/08 11:21:55;;;;;;;18.15;6.65;;;;;;;34.81;62.42;100687.25;5080890;28;20098;-52
2022/09/08 11:24:41;;;;;;;11.48;3.13;;;;;;;34.27;62.87;100695.22;5079691;28;20053;-55
2022/09/08 11:27:13;;;;;;;4.65;1.77;;;;;;;34.66;59.96;100680.63;5081112;28;20037;-53
2022/09/08 11:29:39;;;;;;;4.50;1.48;;;;;;;33.57;65.58;100686.41;5081035;28;20071;-52
2022/09/08 11:32:31;;;;;;;7.30;1.40;;;;;;;33.70;65.04;100686.34;5078773;28;20037;-49
2022/09/08 11:35:22;;;;;;;4.97;1.42;;;;;;;34.52;58.90;100681.13;5075491;28;20055;-55
2022/09/08 11:38:19;;;;;;;5.80;1.73;;;;;;;34.47;55.90;100684.13;5079140;28;20079;-54
2022/09/08 11:41:10;;;;;;;;;;;;;;;35.12;53.66;100681.94;5075617;28;20065;-55
2022/09/08 11:43:55;;;;;;;7.00;1.30;;;;;;;34.06;59.37;100670.56;5073572;28;19913;-53
2022/09/08 11:46:42;;;;;;;10.38;1.85;;;;;;;33.46;62.80;100682.56;5075400;28;20071;-52
2022/09/08 11:49:39;;;;;;;7.35;2.08;;;;;;;34.19;60.15;100671.25;5071473;28;20096;-52
2022/09/08 11:52:34;;;;;;;7.22;1.80;;;;;;;34.72;57.10;100678.34;5074528;28;20060;-52